createdAt,value
2023-10-06T00:02:30.057Z,86.35
2023-10-06T00:04:59.350Z,86.47
2023-10-06T00:07:27.761Z,86.40
2023-10-06T00:09:56.703Z,86.45
2023-10-06T00:12:27.632Z,86.46
2023-10-06T00:14:59.396Z,86.47
2023-10-06T00:17:29.711Z,86.55
2023-10-06T00:20:01.239Z,86.54
2023-10-06T00:22:30.457Z,86.95
2023-10-06T00:25:01.225Z,86.40
2023-10-06T00:27:32.282Z,86.77
2023-10-06T00:30:13.027Z,86.84
2023-10-06T00:32:43.534Z,86.40
2023-10-06T00:35:13.070Z,87.31
2023-10-06T00:37:42.696Z,87.92
2023-10-06T00:40:21.142Z,88.19
2023-10-06T00:42:54.562Z,88.43
2023-10-06T00:45:25.777Z,88.49
2023-10-06T00:47:55.361Z,88.25
2023-10-06T00:50:25.389Z,89.00
2023-10-06T00:52:57.139Z,90.00
2023-10-06T00:55:28.005Z,90.91
2023-10-06T00:57:56.273Z,91.11
2023-10-06T01:00:26.727Z,91.56
2023-10-06T01:02:54.942Z,91.47
2023-10-06T01:05:26.840Z,91.76
2023-10-06T01:07:55.909Z,92.27
2023-10-06T01:10:29.554Z,92.91
2023-10-06T01:12:58.602Z,92.18
2023-10-06T01:15:31.119Z,92.26
2023-10-06T01:18:00.660Z,92.07
2023-10-06T01:20:35.334Z,92.07
2023-10-06T01:23:11.820Z,92.20
2023-10-06T01:25:41.014Z,92.21
2023-10-06T01:28:13.892Z,92.03
2023-10-06T01:30:42.301Z,92.26
2023-10-06T01:33:09.947Z,92.75
2023-10-06T01:35:43.929Z,93.37
2023-10-06T01:38:23.546Z,93.16
2023-10-06T01:40:56.015Z,92.91
2023-10-06T01:43:31.403Z,92.69
2023-10-06T01:46:00.958Z,92.89
2023-10-06T01:48:31.582Z,92.80
2023-10-06T01:51:00.019Z,92.46
2023-10-06T01:53:34.594Z,92.95
2023-10-06T01:56:08.044Z,92.93
2023-10-06T01:58:38.835Z,93.25
2023-10-06T02:01:08.524Z,93.29
2023-10-06T02:03:41.785Z,93.48
2023-10-06T02:06:17.301Z,93.76
2023-10-06T02:08:50.888Z,94.43
2023-10-06T02:11:22.230Z,95.53
2023-10-06T02:13:50.443Z,95.92
2023-10-06T02:16:24.456Z,96.16
2023-10-06T02:18:55.260Z,96.15
2023-10-06T02:21:26.304Z,96.18
2023-10-06T02:24:00.994Z,96.07
2023-10-06T02:26:29.236Z,96.16
2023-10-06T02:28:57.949Z,96.06
2023-10-06T02:31:27.838Z,96.31
2023-10-06T02:33:56.596Z,96.35
2023-10-06T02:36:24.912Z,96.14
2023-10-06T02:38:55.215Z,95.96
2023-10-06T02:41:27.575Z,95.84
2023-10-06T02:43:56.857Z,95.63
2023-10-06T02:46:27.126Z,95.74
2023-10-06T02:48:55.704Z,96.54
2023-10-06T02:51:33.733Z,96.37
2023-10-06T02:54:22.613Z,96.74
2023-10-06T02:56:52.165Z,96.99
2023-10-06T02:59:25.163Z,97.57
2023-10-06T03:01:57.145Z,98.26
2023-10-06T03:04:27.999Z,98.95
2023-10-06T03:06:58.176Z,99.84
2023-10-06T03:09:38.358Z,99.42
2023-10-06T03:12:13.605Z,100.00
2023-10-06T03:14:41.906Z,100.00
2023-10-06T03:17:12.111Z,100.00
2023-10-06T03:19:42.203Z,100.00
2023-10-06T03:22:13.839Z,100.00
2023-10-06T03:24:54.714Z,100.00
2023-10-06T03:27:24.932Z,100.00
2023-10-06T03:29:56.325Z,100.00
2023-10-06T03:32:34.150Z,100.00
2023-10-06T03:35:13.215Z,100.00
2023-10-06T03:37:53.145Z,100.00
2023-10-06T03:40:26.685Z,100.00
2023-10-06T03:42:55.132Z,100.00
2023-10-06T03:45:30.447Z,100.00
2023-10-06T03:48:09.905Z,100.00
2023-10-06T03:50:44.128Z,100.00
2023-10-06T03:53:16.462Z,100.00
2023-10-06T03:55:47.784Z,100.00
2023-10-06T03:58:17.895Z,100.00
2023-10-06T04:00:50.947Z,100.00
2023-10-06T04:03:21.636Z,100.00
2023-10-06T04:05:51.441Z,100.00
2023-10-06T04:08:22.685Z,100.00
2023-10-06T04:10:56.222Z,100.00
2023-10-06T04:13:24.679Z,100.00
2023-10-06T04:15:53.987Z,100.00
2023-10-06T04:18:25.013Z,100.00
2023-10-06T04:20:54.948Z,100.00
2023-10-06T04:23:25.227Z,100.00
2023-10-06T04:25:58.093Z,100.00
2023-10-06T04:28:29.720Z,100.00
2023-10-06T04:31:02.484Z,100.00
2023-10-06T04:33:31.215Z,100.00
2023-10-06T04:36:02.389Z,100.00
2023-10-06T04:38:30.981Z,100.00
2023-10-06T04:41:01.153Z,100.00
2023-10-06T04:43:29.451Z,100.00
2023-10-06T04:45:57.914Z,100.00
2023-10-06T04:48:26.219Z,100.00
2023-10-06T04:50:57.176Z,100.00
2023-10-06T04:53:25.509Z,100.00
2023-10-06T04:55:53.927Z,100.00
2023-10-06T04:58:24.357Z,100.00
2023-10-06T05:00:55.144Z,100.00
2023-10-06T05:03:26.103Z,100.00
2023-10-06T05:05:57.128Z,100.00
2023-10-06T05:08:26.139Z,100.00
2023-10-06T05:10:57.247Z,100.00
2023-10-06T05:13:28.063Z,100.00
2023-10-06T05:15:56.582Z,100.00
2023-10-06T05:18:25.768Z,100.00
2023-10-06T05:20:54.626Z,100.00
2023-10-06T05:23:23.342Z,99.47
2023-10-06T05:25:51.705Z,99.41
2023-10-06T05:28:22.040Z,99.07
2023-10-06T05:30:52.149Z,98.15
2023-10-06T05:33:20.855Z,97.43
2023-10-06T05:35:49.669Z,96.92
2023-10-06T05:38:18.236Z,96.42
2023-10-06T05:40:48.089Z,95.24
2023-10-06T05:43:18.388Z,94.89
2023-10-06T05:45:53.758Z,93.50
2023-10-06T05:48:23.968Z,93.19
2023-10-06T05:50:53.859Z,90.64
2023-10-06T05:53:24.483Z,90.64
2023-10-06T05:55:53.803Z,87.40
2023-10-06T05:58:24.868Z,84.93
2023-10-06T06:00:54.015Z,84.59
2023-10-06T06:03:25.220Z,84.84
2023-10-06T06:05:54.729Z,83.93
2023-10-06T06:08:23.422Z,83.14
2023-10-06T06:10:51.987Z,82.22
2023-10-06T06:13:22.924Z,80.86
2023-10-06T06:15:51.847Z,80.65
2023-10-06T06:18:20.115Z,79.75
2023-10-06T06:20:49.859Z,77.94
2023-10-06T06:23:18.462Z,77.01
2023-10-06T06:25:47.092Z,75.82
2023-10-06T06:28:17.861Z,76.15
2023-10-06T06:30:48.605Z,75.65
2023-10-06T06:33:20.379Z,74.96
2023-10-06T06:35:50.425Z,73.94
2023-10-06T06:38:20.128Z,73.25
2023-10-06T06:40:49.373Z,72.62
2023-10-06T06:43:21.445Z,71.96
2023-10-06T06:45:50.034Z,71.12
2023-10-06T06:48:21.125Z,70.25
2023-10-06T06:50:50.899Z,69.75
2023-10-06T06:53:20.115Z,68.43
2023-10-06T06:55:48.671Z,68.08
2023-10-06T06:58:18.173Z,67.10
2023-10-06T07:00:49.419Z,66.02
2023-10-06T07:03:18.155Z,65.92
2023-10-06T07:05:46.546Z,66.28
2023-10-06T07:08:16.783Z,67.13
2023-10-06T07:10:48.502Z,67.19
2023-10-06T07:13:17.255Z,65.54
2023-10-06T07:15:46.284Z,64.81
2023-10-06T07:18:16.079Z,65.39
2023-10-06T07:20:45.600Z,64.25
2023-10-06T07:23:15.341Z,63.48
2023-10-06T07:25:44.425Z,61.83
2023-10-06T07:28:13.641Z,61.85
2023-10-06T07:30:42.203Z,59.86
2023-10-06T07:33:10.910Z,59.43
2023-10-06T07:35:45.139Z,59.48
2023-10-06T07:38:15.258Z,58.69
2023-10-06T07:40:45.280Z,58.22
2023-10-06T07:43:14.627Z,57.32
2023-10-06T07:45:43.099Z,58.04
2023-10-06T07:48:11.828Z,57.13
2023-10-06T07:50:40.024Z,57.55
2023-10-06T07:53:08.757Z,56.36
2023-10-06T07:55:38.315Z,54.92
2023-10-06T07:58:09.623Z,54.92
2023-10-06T08:00:43.410Z,54.09
2023-10-06T08:03:12.336Z,53.13
2023-10-06T08:05:41.881Z,52.59
2023-10-06T08:08:10.838Z,52.12
2023-10-06T08:10:39.423Z,52.92
2023-10-06T08:13:09.328Z,51.88
2023-10-06T08:15:41.938Z,50.81
2023-10-06T08:18:10.347Z,51.80
2023-10-06T08:20:41.498Z,51.62
2023-10-06T08:23:09.963Z,50.95
2023-10-06T08:25:56.882Z,51.08
2023-10-06T08:28:28.392Z,50.38
2023-10-06T08:30:56.728Z,50.04
2023-10-06T08:33:28.922Z,49.58
2023-10-06T08:36:02.568Z,49.56
2023-10-06T08:38:31.889Z,49.92
2023-10-06T08:41:04.528Z,49.59
2023-10-06T08:43:40.162Z,50.17
2023-10-06T08:46:09.878Z,49.68
2023-10-06T08:48:39.918Z,49.59
2023-10-06T08:51:12.407Z,48.86
2023-10-06T08:53:43.338Z,48.19
2023-10-06T08:56:16.720Z,48.15
2023-10-06T08:58:47.266Z,48.22
2023-10-06T09:01:16.288Z,47.76
2023-10-06T09:03:44.761Z,48.50
2023-10-06T09:06:14.425Z,48.23
2023-10-06T09:08:44.021Z,47.06
2023-10-06T09:11:13.273Z,46.86
2023-10-06T09:13:43.451Z,47.78
2023-10-06T09:16:13.654Z,47.84
2023-10-06T09:18:42.703Z,47.85
2023-10-06T09:21:17.377Z,46.86
2023-10-06T09:23:46.260Z,46.72
2023-10-06T09:26:17.312Z,46.65
2023-10-06T09:28:53.445Z,45.88
2023-10-06T09:31:37.137Z,46.53
2023-10-06T09:34:09.448Z,46.55
2023-10-06T09:36:44.126Z,46.64
2023-10-06T09:39:18.971Z,45.27
2023-10-06T09:41:49.384Z,45.58
2023-10-06T09:44:21.076Z,45.01
2023-10-06T09:46:54.762Z,44.51
2023-10-06T09:49:24.320Z,44.52
2023-10-06T09:51:54.179Z,44.49
2023-10-06T09:54:22.997Z,45.14
2023-10-06T09:56:56.784Z,45.79
2023-10-06T09:59:27.773Z,45.86
2023-10-06T10:02:00.381Z,44.16
2023-10-06T10:04:33.037Z,44.33
2023-10-06T10:07:05.410Z,43.78
2023-10-06T10:12:39.118Z,43.31
2023-10-06T10:15:23.256Z,43.17
2023-10-06T10:18:02.534Z,42.48
2023-10-06T10:20:31.266Z,42.00
2023-10-06T10:23:04.424Z,41.61
2023-10-06T10:25:32.783Z,40.60
2023-10-06T10:28:15.419Z,40.76
2023-10-06T10:30:54.995Z,41.16
2023-10-06T10:33:25.757Z,40.58
2023-10-06T10:36:22.139Z,40.97
2023-10-06T10:39:02.659Z,41.60
2023-10-06T10:41:36.854Z,40.96
2023-10-06T10:44:24.879Z,40.97
2023-10-06T10:46:55.626Z,40.88
2023-10-06T10:49:25.593Z,40.96
2023-10-06T10:51:58.689Z,40.01
2023-10-06T10:54:29.751Z,40.41
2023-10-06T10:57:03.655Z,41.57
2023-10-06T11:00:13.488Z,42.83
2023-10-06T11:02:43.717Z,42.22
2023-10-06T11:05:13.672Z,42.40
2023-10-06T11:07:43.562Z,41.85
2023-10-06T11:10:15.308Z,40.78
2023-10-06T11:12:43.673Z,41.47
2023-10-06T11:15:17.737Z,41.55
2023-10-06T11:17:46.998Z,41.99
2023-10-06T11:20:23.340Z,41.41
2023-10-06T11:22:56.859Z,40.61
2023-10-06T11:25:28.899Z,41.14
2023-10-06T11:27:58.215Z,41.21
2023-10-06T11:30:30.445Z,40.43
2023-10-06T11:32:59.352Z,40.27
2023-10-06T11:35:29.292Z,40.67
2023-10-06T11:37:57.916Z,40.77
2023-10-06T11:40:26.902Z,40.40
2023-10-06T11:42:55.795Z,40.50
2023-10-06T11:45:25.590Z,40.95
2023-10-06T11:47:54.855Z,39.73
2023-10-06T11:50:25.990Z,40.13
2023-10-06T11:52:56.669Z,40.09
2023-10-06T11:55:26.316Z,40.27
2023-10-06T11:57:55.564Z,40.17
2023-10-06T12:00:40.072Z,39.51
2023-10-06T12:03:11.686Z,39.74
2023-10-06T12:05:42.905Z,39.40
2023-10-06T12:08:13.826Z,39.03
2023-10-06T12:10:49.987Z,38.60
2023-10-06T12:13:18.658Z,38.35
2023-10-06T12:15:47.472Z,38.63
2023-10-06T12:18:16.571Z,38.68
2023-10-06T12:20:45.068Z,38.14
2023-10-06T12:23:14.793Z,38.62
2023-10-06T12:25:43.004Z,37.96
2023-10-06T12:28:15.265Z,38.52
2023-10-06T12:30:43.731Z,38.71
2023-10-06T12:33:12.875Z,39.28
2023-10-06T12:35:41.312Z,37.81
2023-10-06T12:38:09.962Z,36.34
2023-10-06T12:40:40.404Z,36.15
2023-10-06T12:43:09.408Z,36.32
2023-10-06T12:45:38.092Z,36.13
2023-10-06T12:48:09.407Z,36.92
2023-10-06T12:50:42.398Z,36.24
2023-10-06T12:53:12.699Z,36.97
2023-10-06T12:55:44.423Z,37.40
2023-10-06T12:58:16.333Z,37.42
2023-10-06T13:00:45.642Z,37.78
2023-10-06T13:03:18.169Z,37.53
2023-10-06T13:05:48.040Z,37.42
2023-10-06T13:08:18.700Z,37.61
2023-10-06T13:10:49.112Z,37.64
2023-10-06T13:13:18.578Z,37.91
2023-10-06T13:15:47.932Z,37.46
2023-10-06T13:18:18.781Z,38.24
2023-10-06T13:20:47.954Z,37.71
2023-10-06T13:23:16.726Z,38.03
2023-10-06T13:25:47.334Z,37.89
2023-10-06T13:28:21.901Z,38.08
2023-10-06T13:30:52.998Z,38.07
2023-10-06T13:33:21.889Z,38.25
2023-10-06T13:35:50.375Z,38.47
2023-10-06T13:38:18.904Z,38.30
2023-10-06T13:40:47.741Z,38.38
2023-10-06T13:43:18.904Z,38.57
2023-10-06T13:45:47.317Z,38.84
2023-10-06T13:48:17.543Z,38.68
2023-10-06T13:50:47.210Z,39.02
2023-10-06T13:53:16.571Z,39.75
2023-10-06T13:55:46.151Z,40.24
2023-10-06T13:58:14.898Z,39.68
2023-10-06T14:00:44.589Z,39.85
2023-10-06T14:03:15.253Z,39.97
2023-10-06T14:05:45.522Z,40.16
2023-10-06T14:08:16.059Z,40.38
2023-10-06T14:10:44.320Z,40.95
2023-10-06T14:13:18.063Z,41.05
2023-10-06T14:15:55.924Z,41.07
2023-10-06T14:18:26.633Z,41.63
2023-10-06T14:20:59.030Z,41.60
2023-10-06T14:23:31.529Z,41.70
2023-10-06T14:26:02.397Z,41.96
2023-10-06T14:28:30.909Z,41.52
2023-10-06T14:31:10.414Z,41.25
2023-10-06T14:33:45.745Z,41.82
2023-10-06T14:36:25.948Z,42.24
2023-10-06T14:39:11.590Z,42.48
2023-10-06T14:41:57.413Z,42.93
2023-10-06T14:44:39.596Z,44.16
2023-10-06T14:47:11.595Z,44.98
2023-10-06T14:52:33.692Z,45.78
2023-10-06T14:55:01.939Z,46.29
2023-10-06T14:57:30.127Z,44.64
2023-10-06T14:59:58.998Z,40.85
2023-10-06T15:02:28.705Z,40.25
2023-10-06T15:04:57.165Z,40.22
2023-10-06T15:07:25.366Z,40.04
2023-10-06T15:09:53.636Z,40.84
2023-10-06T15:12:26.683Z,41.67
2023-10-06T15:14:55.442Z,42.03
2023-10-06T15:17:24.148Z,42.28
2023-10-06T15:19:54.299Z,42.19
2023-10-06T15:22:23.662Z,40.61
2023-10-06T15:24:52.061Z,40.53
2023-10-06T15:27:20.424Z,39.51
2023-10-06T15:29:52.312Z,39.79
2023-10-06T15:32:20.744Z,39.24
2023-10-06T15:34:49.064Z,38.61
2023-10-06T15:37:19.096Z,38.11
2023-10-06T15:39:47.680Z,38.18
2023-10-06T15:42:15.875Z,38.29
2023-10-06T15:44:44.118Z,38.10
2023-10-06T15:47:13.501Z,37.79
2023-10-06T15:49:45.070Z,37.95
2023-10-06T15:52:13.327Z,37.87
2023-10-06T15:54:42.860Z,38.35
2023-10-06T15:57:11.143Z,38.43
2023-10-06T15:59:40.286Z,38.30
2023-10-06T16:02:11.176Z,37.87
2023-10-06T16:04:40.586Z,37.86
2023-10-06T16:07:09.879Z,38.10
2023-10-06T16:09:38.014Z,38.10
2023-10-06T16:12:11.261Z,38.54
2023-10-06T16:14:39.723Z,38.00
2023-10-06T16:17:08.038Z,38.91
2023-10-06T16:19:37.833Z,39.11
2023-10-06T16:22:09.070Z,39.45
2023-10-06T16:24:37.617Z,39.48
2023-10-06T16:27:07.227Z,39.59
2023-10-06T16:29:35.723Z,39.34
2023-10-06T16:32:04.193Z,39.07
2023-10-06T16:34:32.607Z,38.79
2023-10-06T16:37:00.942Z,38.75
2023-10-06T16:39:29.211Z,38.40
2023-10-06T16:41:57.474Z,38.42
2023-10-06T16:44:27.113Z,38.23
2023-10-06T16:46:56.526Z,38.46
2023-10-06T16:49:25.354Z,38.73
2023-10-06T16:51:53.789Z,38.62
2023-10-06T16:54:22.765Z,38.70
2023-10-06T16:56:51.094Z,39.00
2023-10-06T16:59:19.858Z,39.41
2023-10-06T17:01:50.743Z,39.83
2023-10-06T17:04:19.698Z,40.08
2023-10-06T17:06:48.085Z,40.26
2023-10-06T17:09:20.219Z,40.25
2023-10-06T17:11:49.892Z,42.10
2023-10-06T17:14:18.481Z,43.30
2023-10-06T17:16:46.838Z,45.15
2023-10-06T17:19:17.577Z,47.64
2023-10-06T17:21:45.861Z,48.08
2023-10-06T17:24:14.497Z,48.87
2023-10-06T17:26:43.967Z,50.42
2023-10-06T17:29:13.178Z,50.96
2023-10-06T17:31:41.815Z,51.88
2023-10-06T17:34:10.099Z,52.63
2023-10-06T17:36:40.629Z,54.84
2023-10-06T17:39:09.111Z,55.74
2023-10-06T17:41:37.617Z,56.69
2023-10-06T17:44:06.813Z,58.35
2023-10-06T17:46:35.103Z,59.85
2023-10-06T17:49:03.558Z,61.75
2023-10-06T17:51:31.866Z,63.92
2023-10-06T17:54:01.420Z,64.13
2023-10-06T17:56:30.065Z,64.64
2023-10-06T17:58:58.871Z,65.15
2023-10-06T18:01:27.612Z,66.45
2023-10-06T18:03:56.051Z,67.12
2023-10-06T18:06:24.431Z,67.61
2023-10-06T18:08:53.242Z,68.23
2023-10-06T18:11:24.755Z,68.77
2023-10-06T18:13:55.514Z,68.37
2023-10-06T18:16:26.390Z,68.79
2023-10-06T18:18:54.889Z,68.80
2023-10-06T18:21:23.415Z,69.38
2023-10-06T18:23:54.946Z,69.80
2023-10-06T18:26:25.339Z,69.42
2023-10-06T18:28:58.028Z,69.69
2023-10-06T18:31:26.996Z,69.81
2023-10-06T18:33:55.358Z,69.93
2023-10-06T18:36:23.656Z,70.48
2023-10-06T18:38:57.349Z,70.67
2023-10-06T18:41:27.666Z,70.89
2023-10-06T18:43:55.992Z,70.64
2023-10-06T18:46:24.957Z,70.41
2023-10-06T18:48:53.650Z,70.33
2023-10-06T18:51:21.953Z,70.33
2023-10-06T18:53:50.132Z,70.61
2023-10-06T18:56:18.308Z,70.77
2023-10-06T18:58:49.745Z,71.01
2023-10-06T19:01:19.698Z,70.93
2023-10-06T19:03:47.901Z,70.51
2023-10-06T19:06:18.795Z,68.88
2023-10-06T19:08:51.396Z,68.25
2023-10-06T19:11:21.012Z,67.38
2023-10-06T19:13:50.983Z,66.55
2023-10-06T19:16:21.287Z,64.49
2023-10-06T19:18:51.738Z,64.06
2023-10-06T19:21:22.167Z,62.43
2023-10-06T19:23:51.598Z,62.29
2023-10-06T19:26:21.093Z,61.94
2023-10-06T19:28:51.068Z,60.78
2023-10-06T19:31:19.888Z,60.36
2023-10-06T19:33:52.079Z,59.22
2023-10-06T19:36:21.686Z,58.41
2023-10-06T19:38:51.985Z,56.97
2023-10-06T19:41:20.545Z,55.50
2023-10-06T19:43:50.302Z,55.42
2023-10-06T19:46:19.460Z,55.12
2023-10-06T19:48:50.132Z,53.99
2023-10-06T19:51:19.467Z,52.82
2023-10-06T19:53:48.128Z,52.21
2023-10-06T19:56:16.459Z,52.41
2023-10-06T19:58:45.870Z,52.52
2023-10-06T20:01:20.737Z,51.29
2023-10-06T20:03:50.450Z,49.76
2023-10-06T20:06:18.739Z,49.36
2023-10-06T20:08:48.034Z,49.07
2023-10-06T20:11:18.632Z,48.25
2023-10-06T20:13:46.940Z,48.39
2023-10-06T20:16:17.721Z,48.28
2023-10-06T20:18:46.627Z,48.02
2023-10-06T20:21:18.535Z,48.06
2023-10-06T20:23:51.301Z,47.31
2023-10-06T20:26:19.512Z,47.69
2023-10-06T20:28:47.813Z,46.79
2023-10-06T20:31:17.658Z,46.25
2023-10-06T20:33:46.762Z,46.32
2023-10-06T20:36:15.899Z,46.32
2023-10-06T20:38:44.222Z,47.02
2023-10-06T20:41:13.402Z,46.85
2023-10-06T20:43:41.709Z,47.16
2023-10-06T20:46:10.202Z,47.36
2023-10-06T20:48:41.008Z,47.89
2023-10-06T20:51:15.836Z,48.63
2023-10-06T20:53:44.358Z,48.07
2023-10-06T20:56:13.033Z,48.21
2023-10-06T20:58:41.918Z,48.83
2023-10-06T21:01:10.997Z,47.96
2023-10-06T21:03:40.710Z,48.26
2023-10-06T21:06:09.108Z,48.11
2023-10-06T21:08:40.577Z,48.74
2023-10-06T21:11:08.829Z,49.00
2023-10-06T21:13:37.797Z,48.70
2023-10-06T21:16:06.531Z,49.05
2023-10-06T21:18:34.781Z,48.82
2023-10-06T21:21:05.754Z,49.11
2023-10-06T21:23:34.112Z,49.29
2023-10-06T21:26:02.443Z,49.09
2023-10-06T21:28:30.611Z,49.27
2023-10-06T21:30:58.879Z,49.45
2023-10-06T21:33:27.156Z,49.83
2023-10-06T21:35:55.360Z,50.04
2023-10-06T21:38:25.066Z,50.67
2023-10-06T21:41:01.538Z,54.80
2023-10-06T21:43:29.843Z,55.60
2023-10-06T21:45:58.167Z,57.16
2023-10-06T21:48:26.539Z,58.31
2023-10-06T21:50:55.942Z,59.33
2023-10-06T21:53:25.625Z,59.58
2023-10-06T21:55:54.160Z,60.19
2023-10-06T21:58:22.499Z,59.82
2023-10-06T22:00:57.156Z,60.37
2023-10-06T22:03:25.837Z,60.00
2023-10-06T22:05:55.647Z,59.27
2023-10-06T22:08:25.677Z,57.92
2023-10-06T22:10:57.343Z,56.92
2023-10-06T22:13:25.875Z,56.83
2023-10-06T22:15:54.124Z,58.18
2023-10-06T22:18:22.911Z,56.96
2023-10-06T22:20:51.197Z,58.76
2023-10-06T22:23:20.526Z,58.48
2023-10-06T22:25:52.415Z,59.35
2023-10-06T22:28:21.556Z,58.63
2023-10-06T22:30:50.333Z,57.24
2023-10-06T22:33:18.966Z,56.70
2023-10-06T22:35:47.109Z,55.26
2023-10-06T22:38:16.075Z,53.96
2023-10-06T22:40:44.349Z,54.03
2023-10-06T22:43:13.897Z,53.16
2023-10-06T22:45:42.107Z,53.63
2023-10-06T22:48:10.671Z,54.82
2023-10-06T22:50:39.260Z,54.88
2023-10-06T22:53:08.556Z,58.00
2023-10-06T22:55:37.652Z,59.17
2023-10-06T22:58:06.968Z,61.20
2023-10-06T23:00:37.709Z,62.98
2023-10-06T23:03:06.621Z,65.59
2023-10-06T23:05:35.265Z,68.87
2023-10-06T23:08:03.437Z,71.15
2023-10-06T23:10:32.138Z,71.97
2023-10-06T23:13:01.733Z,74.52
2023-10-06T23:15:33.169Z,75.84
2023-10-06T23:18:03.021Z,75.12
2023-10-06T23:20:32.335Z,75.68
2023-10-06T23:23:00.912Z,75.91
2023-10-06T23:25:37.960Z,76.00
2023-10-06T23:28:08.301Z,76.88
2023-10-06T23:30:38.216Z,76.80
2023-10-06T23:33:08.493Z,76.70
2023-10-06T23:35:36.719Z,76.77
2023-10-06T23:38:08.191Z,78.26
2023-10-06T23:40:39.743Z,79.30
2023-10-06T23:43:09.916Z,80.83
2023-10-06T23:45:39.217Z,81.08
2023-10-06T23:48:12.707Z,81.39
2023-10-06T23:50:52.641Z,82.05
2023-10-06T23:53:24.278Z,83.06
2023-10-06T23:55:53.966Z,83.40
2023-10-06T23:58:23.632Z,84.71
